Time;durP1;ratioP1;P1;durP2;ratioP2;P2;SDS_P1;SDS_P2;PMS_P1;PMS_P2;Temp;Humidity;BMP_temperature;BMP_pressure;BME280_temperature;BME280_humidity;BME280_pressure;Samples;Min_cycle;Max_cycle;Signal;HPM_P1;HPM_P2
2023/06/22 00:02:21;;;;;;;5.10;4.00;;;;;;;;;;5074763;28;20185;-78
2023/06/22 00:04:46;;;;;;;7.40;3.55;;;;;;;;;;5075026;28;20222;-78
2023/06/22 00:07:11;;;;;;;4.78;3.30;;;;;;;;;;5072534;28;20227;-78
2023/06/22 00:09:36;;;;;;;6.32;4.40;;;;;;;;;;5077978;28;20176;-78
2023/06/22 00:12:02;;;;;;;7.25;4.20;;;;;;;;;;5076495;28;20559;-78
2023/06/22 00:14:27;;;;;;;7.03;4.32;;;;;;;;;;5079535;28;20203;-78
2023/06/22 00:16:57;;;;;;;6.45;4.70;;;;;;;;;;5071247;28;20232;-78
2023/06/22 00:19:23;;;;;;;8.98;5.25;;;;;;;;;;5075143;28;20181;-78
2023/06/22 00:21:52;;;;;;;6.30;4.47;;;;;;;;;;5063982;28;20189;-77
2023/06/22 00:24:17;;;;;;;6.32;3.97;;;;;;;;;;5074168;22;20232;-72
2023/06/22 00:26:43;;;;;;;6.00;3.67;;;;;;;;;;5046451;28;20225;-71
2023/06/22 00:29:08;;;;;;;5.25;4.05;;;;;;;;;;5047469;28;20198;-71
2023/06/22 00:31:33;;;;;;;8.80;5.68;;;;;;;;;;5043051;28;20204;-71
2023/06/22 00:33:58;;;;;;;7.05;5.03;;;;;;;;;;5043947;28;20652;-71
2023/06/22 00:36:24;;;;;;;8.20;5.20;;;;;;;;;;5042628;28;20182;-71
2023/06/22 00:38:50;;;;;;;9.82;5.82;;;;;;;;;;5028178;28;20272;-71
2023/06/22 00:41:15;;;;;;;7.22;5.50;;;;;;;;;;5039705;28;20190;-71
2023/06/22 00:43:42;;;;;;;11.48;6.20;;;;;;;;;;5044103;28;20565;-71
2023/06/22 00:46:07;;;;;;;10.38;5.75;;;;;;;;;;5042027;28;20580;-70
2023/06/22 00:48:33;;;;;;;11.00;6.00;;;;;;;;;;5026641;28;20227;-70
2023/06/22 00:50:58;;;;;;;8.52;5.30;;;;;;;;;;5026863;28;20181;-70
2023/06/22 00:53:23;;;;;;;12.82;6.40;;;;;;;;;;5040070;28;20187;-70
2023/06/22 00:55:51;;;;;;;6.85;5.22;;;;;;;;;;5045287;28;20202;-70
2023/06/22 00:58:17;;;;;;;7.78;5.40;;;;;;;;;;5030568;28;20534;-70
2023/06/22 01:00:42;;;;;;;7.20;5.38;;;;;;;;;;5048949;28;20211;-70
2023/06/22 01:03:10;;;;;;;5.70;4.70;;;;;;;;;;5045404;28;20605;-71
2023/06/22 01:05:37;;;;;;;9.00;6.20;;;;;;;;;;5050942;28;20202;-70
2023/06/22 01:08:05;;;;;;;8.18;5.55;;;;;;;;;;5049933;28;20166;-72
2023/06/22 01:10:51;;;;;;;10.82;6.53;;;;;;;;;;5041318;28;20173;-71
2023/06/22 01:13:19;;;;;;;6.38;4.80;;;;;;;;;;5047069;28;20204;-70
2023/06/22 01:16:00;;;;;;;7.30;4.82;;;;;;;;;;5052589;28;20691;-70
2023/06/22 01:18:27;;;;;;;7.40;5.38;;;;;;;;;;5052049;28;20649;-71
2023/06/22 01:20:55;;;;;;;6.00;4.82;;;;;;;;;;5051819;28;20217;-70
2023/06/22 01:23:35;;;;;;;7.28;5.63;;;;;;;;;;5049496;28;20173;-71
2023/06/22 01:26:18;;;;;;;10.80;5.63;;;;;;;;;;5044941;28;20205;-70
2023/06/22 01:28:43;;;;;;;11.48;6.00;;;;;;;;;;5048791;28;20268;-71
2023/06/22 01:31:10;;;;;;;8.45;6.57;;;;;;;;;;5049624;28;20248;-71
2023/06/22 01:33:37;;;;;;;12.38;6.75;;;;;;;;;;5034546;28;20284;-71
2023/06/22 01:36:04;;;;;;;9.73;6.72;;;;;;;;;;5025554;28;20710;-70
2023/06/22 01:38:30;;;;;;;9.80;6.57;;;;;;;;;;5045176;28;20240;-71
2023/06/22 01:40:56;;;;;;;9.80;7.45;;;;;;;;;;5043389;28;20181;-70
2023/06/22 01:43:23;;;;;;;9.68;6.22;;;;;;;;;;5046850;28;20235;-70
2023/06/22 01:45:49;;;;;;;13.23;7.38;;;;;;;;;;5045171;28;20202;-70
2023/06/22 01:48:15;;;;;;;11.10;6.63;;;;;;;;;;5033485;28;20711;-70
2023/06/22 01:50:40;;;;;;;10.77;7.38;;;;;;;;;;5049862;28;20188;-70
2023/06/22 01:53:06;;;;;;;8.77;6.65;;;;;;;;;;5042934;28;20263;-71
2023/06/22 01:55:32;;;;;;;12.77;7.03;;;;;;;;;;5029632;28;20209;-71
2023/06/22 01:57:57;;;;;;;12.90;7.30;;;;;;;;;;5052612;28;20178;-71
2023/06/22 02:00:24;;;;;;;9.75;7.25;;;;;;;;;;5043269;28;20192;-70
2023/06/22 02:02:58;;;;;;;12.20;7.43;;;;;;;;;;5049211;28;20173;-71
2023/06/22 02:05:26;;;;;;;11.63;8.00;;;;;;;;;;5045906;28;20569;-71
2023/06/22 02:08:07;;;;;;;9.63;7.30;;;;;;;;;;5044523;28;20594;-71
2023/06/22 02:10:32;;;;;;;11.45;8.15;;;;;;;;;;5034786;28;20211;-71
2023/06/22 02:12:58;;;;;;;12.70;7.78;;;;;;;;;;5050693;28;20205;-71
2023/06/22 02:15:24;;;;;;;9.65;6.85;;;;;;;;;;5047906;28;20621;-71
2023/06/22 02:17:49;;;;;;;11.02;7.43;;;;;;;;;;5051151;28;20174;-71
2023/06/22 02:20:15;;;;;;;11.60;7.35;;;;;;;;;;5052022;28;20169;-71
2023/06/22 02:22:40;;;;;;;12.77;8.70;;;;;;;;;;5047216;28;20221;-71
2023/06/22 02:25:06;;;;;;;12.98;8.07;;;;;;;;;;5047784;28;20200;-71
2023/06/22 02:27:31;;;;;;;12.48;8.80;;;;;;;;;;5048342;28;20233;-71
2023/06/22 02:29:56;;;;;;;13.25;8.85;;;;;;;;;;5045587;28;20196;-71
2023/06/22 02:32:22;;;;;;;15.75;8.18;;;;;;;;;;5027514;28;20201;-71
2023/06/22 02:34:47;;;;;;;12.07;8.82;;;;;;;;;;5039966;28;20237;-71
2023/06/22 02:37:14;;;;;;;13.65;8.73;;;;;;;;;;5060465;28;20187;-70
2023/06/22 02:39:40;;;;;;;14.40;8.90;;;;;;;;;;5048262;28;20190;-70
2023/06/22 02:42:05;;;;;;;13.75;8.30;;;;;;;;;;5051653;28;20656;-70
2023/06/22 02:44:30;;;;;;;11.57;7.68;;;;;;;;;;5047065;28;20208;-70
2023/06/22 02:46:56;;;;;;;15.45;9.15;;;;;;;;;;5051542;28;20663;-70
2023/06/22 02:49:21;;;;;;;10.95;8.75;;;;;;;;;;5048610;28;20548;-70
2023/06/22 02:51:47;;;;;;;13.02;7.50;;;;;;;;;;5048649;28;20178;-70
2023/06/22 02:54:12;;;;;;;11.73;8.43;;;;;;;;;;5049785;28;20196;-70
2023/06/22 02:56:37;;;;;;;15.05;8.80;;;;;;;;;;5054295;28;20200;-70
2023/06/22 02:59:03;;;;;;;11.73;7.45;;;;;;;;;;5050373;28;20616;-70
2023/06/22 03:01:30;;;;;;;11.02;8.13;;;;;;;;;;5034466;28;20191;-70
2023/06/22 03:03:55;;;;;;;15.40;8.25;;;;;;;;;;5053302;28;20180;-70
2023/06/22 03:06:23;;;;;;;10.90;8.18;;;;;;;;;;5051505;28;20201;-70
2023/06/22 03:08:52;;;;;;;16.17;9.13;;;;;;;;;;5047473;28;20184;-70
2023/06/22 03:11:17;;;;;;;11.00;8.57;;;;;;;;;;5020515;28;20170;-71
2023/06/22 03:13:43;;;;;;;11.05;7.40;;;;;;;;;;5048465;28;20178;-70
2023/06/22 03:16:08;;;;;;;14.27;8.52;;;;;;;;;;5050037;28;20201;-71
2023/06/22 03:18:33;;;;;;;9.68;6.38;;;;;;;;;;5046152;28;20216;-70
2023/06/22 03:20:59;;;;;;;11.00;7.60;;;;;;;;;;5049022;28;20177;-70
2023/06/22 03:23:24;;;;;;;10.48;7.78;;;;;;;;;;5053216;28;20170;-70
2023/06/22 03:25:49;;;;;;;14.02;8.43;;;;;;;;;;5048492;28;20598;-70
2023/06/22 03:28:14;;;;;;;13.68;8.25;;;;;;;;;;5049914;28;20171;-70
2023/06/22 03:30:39;;;;;;;10.60;7.30;;;;;;;;;;5046009;28;20228;-70
2023/06/22 03:33:05;;;;;;;11.25;7.88;;;;;;;;;;5050147;28;20262;-70
2023/06/22 03:35:30;;;;;;;12.30;8.52;;;;;;;;;;5036869;28;20202;-70
2023/06/22 03:37:55;;;;;;;10.57;7.40;;;;;;;;;;5036880;28;20648;-70
2023/06/22 03:40:21;;;;;;;11.88;8.00;;;;;;;;;;5044771;28;20182;-70
2023/06/22 03:42:46;;;;;;;10.35;7.55;;;;;;;;;;5051167;28;20252;-70
2023/06/22 03:45:11;;;;;;;9.93;7.38;;;;;;;;;;5046692;28;20201;-70
2023/06/22 03:47:36;;;;;;;10.48;7.55;;;;;;;;;;5054594;28;20218;-70
2023/06/22 03:50:03;;;;;;;11.30;7.68;;;;;;;;;;5044966;28;20189;-70
2023/06/22 03:52:28;;;;;;;11.98;7.32;;;;;;;;;;5017591;28;20182;-70
2023/06/22 03:54:54;;;;;;;13.27;8.00;;;;;;;;;;5045848;28;20253;-70
2023/06/22 03:57:19;;;;;;;13.30;7.50;;;;;;;;;;5048336;28;20181;-70
2023/06/22 03:59:44;;;;;;;10.70;7.05;;;;;;;;;;5045885;28;20174;-70
2023/06/22 04:02:09;;;;;;;9.43;7.53;;;;;;;;;;5045871;28;20209;-70
2023/06/22 04:04:35;;;;;;;12.07;8.10;;;;;;;;;;5026181;28;20198;-71
2023/06/22 04:07:00;;;;;;;15.30;8.05;;;;;;;;;;5026288;28;20285;-71
2023/06/22 04:09:25;;;;;;;12.77;8.43;;;;;;;;;;5019091;28;20565;-70
2023/06/22 04:11:51;;;;;;;11.55;7.68;;;;;;;;;;5044489;28;20182;-71
2023/06/22 04:14:16;;;;;;;9.70;6.97;;;;;;;;;;5051540;28;20540;-71
2023/06/22 04:16:41;;;;;;;9.35;7.00;;;;;;;;;;5031701;28;20188;-71
2023/06/22 04:19:06;;;;;;;10.27;7.22;;;;;;;;;;5050059;28;20176;-71
2023/06/22 04:21:31;;;;;;;12.25;6.95;;;;;;;;;;5046955;28;20200;-71
2023/06/22 04:23:57;;;;;;;15.77;7.90;;;;;;;;;;5033442;28;20235;-71
2023/06/22 04:26:22;;;;;;;13.38;8.20;;;;;;;;;;5042165;28;20193;-71
2023/06/22 04:28:51;;;;;;;10.88;7.28;;;;;;;;;;5044798;28;20184;-71
2023/06/22 04:31:19;;;;;;;8.70;6.57;;;;;;;;;;5048536;28;20165;-71
2023/06/22 04:33:45;;;;;;;10.45;6.70;;;;;;;;;;5038162;28;20189;-71
2023/06/22 04:36:13;;;;;;;9.52;7.43;;;;;;;;;;5049246;28;20182;-71
2023/06/22 04:38:38;;;;;;;12.70;6.68;;;;;;;;;;5021106;28;20187;-71
2023/06/22 04:41:03;;;;;;;10.65;6.80;;;;;;;;;;5043514;28;20687;-71
2023/06/22 04:43:30;;;;;;;11.10;7.10;;;;;;;;;;5043937;28;20191;-71
2023/06/22 04:45:55;;;;;;;10.75;6.60;;;;;;;;;;5048943;28;20710;-71
2023/06/22 04:48:21;;;;;;;10.57;6.57;;;;;;;;;;5052640;28;20181;-71
2023/06/22 04:50:46;;;;;;;9.57;6.63;;;;;;;;;;5054495;28;20192;-71
2023/06/22 04:53:12;;;;;;;9.10;6.90;;;;;;;;;;5049740;28;20182;-71
2023/06/22 04:55:41;;;;;;;8.00;6.03;;;;;;;;;;5026676;28;20225;-71
2023/06/22 04:58:06;;;;;;;10.73;6.75;;;;;;;;;;5051407;28;20591;-71
2023/06/22 05:00:32;;;;;;;10.77;7.05;;;;;;;;;;5026770;28;20309;-71
2023/06/22 05:02:57;;;;;;;8.93;6.75;;;;;;;;;;5051872;28;20189;-71
2023/06/22 05:05:23;;;;;;;10.95;6.65;;;;;;;;;;5052366;28;20706;-70
2023/06/22 05:07:52;;;;;;;11.43;6.60;;;;;;;;;;5047562;28;20216;-70
2023/06/22 05:10:18;;;;;;;10.32;6.78;;;;;;;;;;5033688;28;20205;-70
2023/06/22 05:12:43;;;;;;;12.55;7.15;;;;;;;;;;5048642;28;20401;-71
2023/06/22 05:15:09;;;;;;;9.77;6.85;;;;;;;;;;5052533;28;20189;-71
2023/06/22 05:17:34;;;;;;;7.68;6.38;;;;;;;;;;5045460;28;20692;-70
2023/06/22 05:20:00;;;;;;;11.32;7.13;;;;;;;;;;5050873;28;20193;-71
2023/06/22 05:22:25;;;;;;;10.85;7.30;;;;;;;;;;5043280;28;20281;-70
2023/06/22 05:24:50;;;;;;;9.13;6.55;;;;;;;;;;5045117;28;20293;-71
2023/06/22 05:27:15;;;;;;;9.60;6.70;;;;;;;;;;5045515;28;20233;-71
2023/06/22 05:29:42;;;;;;;14.25;8.05;;;;;;;;;;5026485;28;20261;-70
2023/06/22 05:32:07;;;;;;;13.23;7.90;;;;;;;;;;5045809;28;20273;-70
2023/06/22 05:34:32;;;;;;;8.70;6.55;;;;;;;;;;5050883;28;20628;-71
2023/06/22 05:37:01;;;;;;;11.82;6.82;;;;;;;;;;5049031;28;20744;-70
2023/06/22 05:39:26;;;;;;;9.40;7.03;;;;;;;;;;5050500;28;20193;-70
2023/06/22 05:41:51;;;;;;;7.38;5.90;;;;;;;;;;5045565;28;20177;-70
2023/06/22 05:44:17;;;;;;;9.73;6.20;;;;;;;;;;5023126;28;20228;-71
2023/06/22 05:46:49;;;;;;;13.35;7.68;;;;;;;;;;5050937;28;20252;-70
2023/06/22 05:49:15;;;;;;;8.05;6.07;;;;;;;;;;5030271;28;20189;-70
2023/06/22 05:51:40;;;;;;;9.75;6.55;;;;;;;;;;5045608;28;20173;-70
2023/06/22 05:54:06;;;;;;;10.15;6.10;;;;;;;;;;5045606;28;20225;-70
2023/06/22 05:56:31;;;;;;;9.55;6.90;;;;;;;;;;5049570;28;20180;-70
2023/06/22 05:58:56;;;;;;;7.85;5.65;;;;;;;;;;5040926;28;20189;-71
2023/06/22 06:01:22;;;;;;;8.30;5.47;;;;;;;;;;5047717;28;20554;-70
2023/06/22 06:03:49;;;;;;;9.05;5.10;;;;;;;;;;5027609;28;20639;-70
2023/06/22 06:06:14;;;;;;;5.90;4.53;;;;;;;;;;5042433;28;20691;-71
2023/06/22 06:08:40;;;;;;;5.80;4.22;;;;;;;;;;5049539;28;20257;-71
2023/06/22 06:11:05;;;;;;;9.95;5.43;;;;;;;;;;5043882;28;20166;-71
2023/06/22 06:13:31;;;;;;;7.50;4.90;;;;;;;;;;5047067;28;20182;-70
2023/06/22 06:15:57;;;;;;;5.13;4.07;;;;;;;;;;5054706;28;20285;-70
2023/06/22 06:18:22;;;;;;;8.05;5.20;;;;;;;;;;5039696;28;20679;-71
2023/06/22 06:20:47;;;;;;;6.70;4.80;;;;;;;;;;5042091;28;20189;-72
2023/06/22 06:23:12;;;;;;;7.10;5.63;;;;;;;;;;5052699;28;20188;-71
2023/06/22 06:25:37;;;;;;;8.02;4.82;;;;;;;;;;5053950;28;20213;-71
2023/06/22 06:28:03;;;;;;;9.77;6.85;;;;;;;;;;5051394;28;20259;-72
2023/06/22 06:30:28;;;;;;;11.75;6.85;;;;;;;;;;5053418;28;20178;-72
2023/06/22 06:32:53;;;;;;;9.65;7.18;;;;;;;;;;5055685;28;20722;-72
2023/06/22 06:35:19;;;;;;;11.38;9.05;;;;;;;;;;5043543;28;20820;-71
2023/06/22 06:37:45;;;;;;;13.40;8.95;;;;;;;;;;5048855;28;20252;-72
2023/06/22 06:40:11;;;;;;;13.00;9.45;;;;;;;;;;5047523;28;20182;-72
2023/06/22 06:42:38;;;;;;;10.38;8.57;;;;;;;;;;5050240;28;20193;-72
2023/06/22 06:45:04;;;;;;;10.85;8.50;;;;;;;;;;5046533;28;20198;-71
2023/06/22 06:47:29;;;;;;;18.35;9.73;;;;;;;;;;5040989;28;20267;-72
2023/06/22 06:49:54;;;;;;;16.90;10.88;;;;;;;;;;5049758;28;20599;-71
2023/06/22 06:52:20;;;;;;;15.82;10.82;;;;;;;;;;5050302;28;20559;-71
2023/06/22 06:54:46;;;;;;;12.30;9.77;;;;;;;;;;5046357;28;20246;-72
2023/06/22 06:57:13;;;;;;;12.77;9.02;;;;;;;;;;5048985;28;20418;-71
2023/06/22 06:59:38;;;;;;;12.32;8.85;;;;;;;;;;5020525;28;20189;-72
2023/06/22 07:02:04;;;;;;;14.18;10.32;;;;;;;;;;5050169;28;20185;-72
2023/06/22 07:04:29;;;;;;;15.55;8.88;;;;;;;;;;5041995;28;20670;-71
2023/06/22 07:06:54;;;;;;;11.15;8.77;;;;;;;;;;5052476;28;20200;-71
2023/06/22 07:09:20;;;;;;;13.98;10.45;;;;;;;;;;5027658;28;20170;-70
2023/06/22 07:11:45;;;;;;;14.07;9.50;;;;;;;;;;5047247;28;20189;-72
2023/06/22 07:14:10;;;;;;;15.13;9.13;;;;;;;;;;5046834;28;20446;-72
2023/06/22 07:16:35;;;;;;;17.15;9.43;;;;;;;;;;5049276;28;20791;-72
2023/06/22 07:19:00;;;;;;;12.00;9.15;;;;;;;;;;5044629;28;20563;-72
2023/06/22 07:21:26;;;;;;;11.80;8.35;;;;;;;;;;5042438;28;20547;-72
2023/06/22 07:23:51;;;;;;;10.93;9.60;;;;;;;;;;5044104;28;20252;-72
2023/06/22 07:26:16;;;;;;;9.13;7.72;;;;;;;;;;5044157;28;20476;-72
2023/06/22 07:28:42;;;;;;;10.95;8.85;;;;;;;;;;5046412;28;20227;-72
2023/06/22 07:31:07;;;;;;;9.95;7.78;;;;;;;;;;5045758;28;20177;-71
2023/06/22 07:33:32;;;;;;;12.45;7.95;;;;;;;;;;5044057;28;20726;-72
2023/06/22 07:35:57;;;;;;;11.40;9.85;;;;;;;;;;5023846;28;20205;-72
2023/06/22 07:38:23;;;;;;;13.37;9.20;;;;;;;;;;5048577;28;20262;-72
2023/06/22 07:40:48;;;;;;;11.35;9.27;;;;;;;;;;5027437;28;20526;-72
2023/06/22 07:43:14;;;;;;;10.77;8.35;;;;;;;;;;5042957;28;20182;-72
2023/06/22 07:45:40;;;;;;;11.63;8.57;;;;;;;;;;5047767;28;20201;-72
2023/06/22 07:48:05;;;;;;;12.05;8.85;;;;;;;;;;5023192;28;20811;-72
2023/06/22 07:50:31;;;;;;;9.10;6.85;;;;;;;;;;5051136;28;20234;-72
2023/06/22 07:52:56;;;;;;;10.68;8.95;;;;;;;;;;5042437;28;20185;-72
2023/06/22 07:55:21;;;;;;;10.65;7.40;;;;;;;;;;5044857;28;20413;-72
2023/06/22 07:57:47;;;;;;;9.83;7.40;;;;;;;;;;5047694;28;20193;-72
2023/06/22 08:00:17;;;;;;;10.77;7.05;;;;;;;;;;5049551;28;20410;-72
2023/06/22 08:02:42;;;;;;;8.60;7.53;;;;;;;;;;5032039;28;20202;-72
2023/06/22 08:05:08;;;;;;;13.63;8.30;;;;;;;;;;5048201;28;20263;-72
2023/06/22 08:07:35;;;;;;;10.55;8.27;;;;;;;;;;5046192;28;20204;-72
2023/06/22 08:10:00;;;;;;;8.02;7.22;;;;;;;;;;5040586;28;20174;-72
2023/06/22 08:12:25;;;;;;;8.00;7.10;;;;;;;;;;5043910;28;20535;-75
2023/06/22 08:14:51;;;;;;;10.57;7.27;;;;;;;;;;5049114;28;20193;-72
2023/06/22 08:17:16;;;;;;;9.43;7.40;;;;;;;;;;5040571;28;20796;-72
2023/06/22 08:19:41;;;;;;;10.32;6.90;;;;;;;;;;5047705;28;20257;-72
2023/06/22 08:22:06;;;;;;;9.63;6.85;;;;;;;;;;5051169;28;20185;-72
2023/06/22 08:24:32;;;;;;;7.28;6.57;;;;;;;;;;5054316;28;20584;-72
2023/06/22 08:26:57;;;;;;;8.98;6.25;;;;;;;;;;5031194;28;20267;-73
2023/06/22 08:29:22;;;;;;;10.15;6.45;;;;;;;;;;5049105;28;20170;-72
2023/06/22 08:31:47;;;;;;;8.40;5.10;;;;;;;;;;5053145;28;20638;-72
2023/06/22 08:34:12;;;;;;;7.53;4.47;;;;;;;;;;5048217;28;20940;-72
2023/06/22 08:36:41;;;;;;;6.72;5.18;;;;;;;;;;5050795;28;20448;-72
2023/06/22 08:39:06;;;;;;;6.22;4.75;;;;;;;;;;5049049;28;20651;-72
2023/06/22 08:41:31;;;;;;;5.82;4.50;;;;;;;;;;5050000;28;20254;-73
2023/06/22 08:43:57;;;;;;;5.47;4.00;;;;;;;;;;5054388;28;20173;-72
2023/06/22 08:46:29;;;;;;;6.90;4.28;;;;;;;;;;5047505;28;20450;-72
2023/06/22 08:48:55;;;;;;;3.72;3.40;;;;;;;;;;5031362;28;20671;-72
2023/06/22 08:51:20;;;;;;;7.82;4.53;;;;;;;;;;5052693;28;20227;-73
2023/06/22 08:53:45;;;;;;;6.93;4.05;;;;;;;;;;5052805;28;20682;-72
2023/06/22 08:56:11;;;;;;;6.18;4.35;;;;;;;;;;5049742;28;20566;-73
2023/06/22 08:58:36;;;;;;;6.20;4.38;;;;;;;;;;5042552;28;20189;-72
2023/06/22 09:01:02;;;;;;;6.13;5.07;;;;;;;;;;5047178;28;20185;-70
2023/06/22 09:03:27;;;;;;;4.78;4.25;;;;;;;;;;5047326;28;20181;-71
2023/06/22 09:05:52;;;;;;;4.03;3.42;;;;;;;;;;5046029;28;20193;-71
2023/06/22 09:08:18;;;;;;;4.18;3.25;;;;;;;;;;5047644;28;20170;-71
2023/06/22 09:10:43;;;;;;;3.40;2.85;;;;;;;;;;5052654;28;20323;-71
2023/06/22 09:13:08;;;;;;;3.80;3.08;;;;;;;;;;5046519;28;20181;-71
2023/06/22 09:15:34;;;;;;;4.37;2.90;;;;;;;;;;5054570;28;20213;-71
2023/06/22 09:17:59;;;;;;;5.35;3.22;;;;;;;;;;5046609;28;20434;-72
2023/06/22 09:20:24;;;;;;;8.98;3.83;;;;;;;;;;5046943;28;20189;-72
2023/06/22 09:22:50;;;;;;;5.67;4.43;;;;;;;;;;5046458;28;20269;-72
2023/06/22 09:25:15;;;;;;;8.57;4.13;;;;;;;;;;5050679;28;20454;-73
2023/06/22 09:27:40;;;;;;;5.75;4.45;;;;;;;;;;5036315;28;20237;-72
2023/06/22 09:30:06;;;;;;;6.00;3.90;;;;;;;;;;5052505;28;20200;-72
2023/06/22 09:32:31;;;;;;;4.35;3.83;;;;;;;;;;5047083;28;20454;-72
2023/06/22 09:34:56;;;;;;;5.03;3.93;;;;;;;;;;5029688;28;20202;-72
2023/06/22 09:37:22;;;;;;;5.63;3.78;;;;;;;;;;5029286;28;20816;-72
2023/06/22 09:39:47;;;;;;;4.83;3.90;;;;;;;;;;5049455;28;20187;-71
2023/06/22 09:42:13;;;;;;;4.80;3.80;;;;;;;;;;5045212;28;21074;-72
2023/06/22 09:44:38;;;;;;;5.75;3.70;;;;;;;;;;5047116;28;20209;-72
2023/06/22 09:47:04;;;;;;;4.72;3.58;;;;;;;;;;5052433;28;20583;-72
2023/06/22 09:49:29;;;;;;;4.65;3.50;;;;;;;;;;5047149;28;20257;-71
2023/06/22 09:51:54;;;;;;;5.20;3.77;;;;;;;;;;5050202;28;22412;-72
2023/06/22 09:54:19;;;;;;;4.70;3.40;;;;;;;;;;5042700;28;21121;-72
2023/06/22 09:56:44;;;;;;;7.20;3.10;;;;;;;;;;5047412;28;20955;-72
2023/06/22 09:59:10;;;;;;;4.10;3.07;;;;;;;;;;5047483;28;20174;-72
2023/06/22 10:01:35;;;;;;;7.70;3.80;;;;;;;;;;5023265;28;20414;-71
2023/06/22 10:04:01;;;;;;;4.23;3.20;;;;;;;;;;5048057;28;20264;-72
2023/06/22 10:06:26;;;;;;;4.55;3.50;;;;;;;;;;5050947;28;20466;-72
2023/06/22 10:08:52;;;;;;;5.03;3.55;;;;;;;;;;5046439;28;20563;-71
2023/06/22 10:11:17;;;;;;;5.32;3.88;;;;;;;;;;5044292;28;20216;-72
2023/06/22 10:13:43;;;;;;;7.72;4.15;;;;;;;;;;5029302;28;20555;-72
2023/06/22 10:16:08;;;;;;;3.50;3.17;;;;;;;;;;5042917;28;20200;-71
2023/06/22 10:18:33;;;;;;;4.53;2.97;;;;;;;;;;5045791;28;20192;-71
2023/06/22 10:20:58;;;;;;;6.57;3.58;;;;;;;;;;5030966;28;20497;-72
2023/06/22 10:23:24;;;;;;;3.00;2.70;;;;;;;;;;5049558;28;20185;-71
2023/06/22 10:25:49;;;;;;;3.58;2.90;;;;;;;;;;5032350;28;20478;-72
2023/06/22 10:28:14;;;;;;;5.15;3.13;;;;;;;;;;5046029;28;20182;-71
2023/06/22 10:30:43;;;;;;;3.10;2.80;;;;;;;;;;5043572;28;20178;-71
2023/06/22 10:33:08;;;;;;;5.05;3.17;;;;;;;;;;5041174;28;20182;-72
2023/06/22 10:35:34;;;;;;;6.88;3.42;;;;;;;;;;5046739;28;20304;-72
2023/06/22 10:37:59;;;;;;;4.55;3.30;;;;;;;;;;5039906;28;20261;-72
2023/06/22 10:40:25;;;;;;;4.68;3.20;;;;;;;;;;5029832;28;20765;-72
2023/06/22 10:42:50;;;;;;;6.50;3.22;;;;;;;;;;5029467;28;20173;-72
2023/06/22 10:45:15;;;;;;;5.90;3.00;;;;;;;;;;5028342;28;20193;-71
2023/06/22 10:47:42;;;;;;;9.30;3.47;;;;;;;;;;5032181;28;20212;-72
2023/06/22 10:50:07;;;;;;;4.88;3.15;;;;;;;;;;5043530;28;20889;-72
2023/06/22 10:52:32;;;;;;;4.38;3.47;;;;;;;;;;5047560;28;20173;-72
2023/06/22 10:54:58;;;;;;;4.60;3.50;;;;;;;;;;5044539;28;20189;-72
2023/06/22 10:57:23;;;;;;;6.55;3.53;;;;;;;;;;5047772;28;20178;-72
2023/06/22 10:59:48;;;;;;;5.07;3.30;;;;;;;;;;5048034;28;20205;-72
2023/06/22 11:02:14;;;;;;;4.10;3.33;;;;;;;;;;5050265;28;20185;-72
2023/06/22 11:04:39;;;;;;;4.28;3.50;;;;;;;;;;5029645;28;20198;-71
2023/06/22 11:07:04;;;;;;;3.75;3.08;;;;;;;;;;5048201;28;20663;-72
2023/06/22 11:09:30;;;;;;;4.63;3.13;;;;;;;;;;5044096;28;20677;-72
2023/06/22 11:11:55;;;;;;;4.28;3.40;;;;;;;;;;5046700;28;20207;-72
2023/06/22 11:14:21;;;;;;;3.47;2.95;;;;;;;;;;5033248;28;20204;-71
2023/06/22 11:16:47;;;;;;;5.57;3.30;;;;;;;;;;5026984;28;20185;-72
2023/06/22 11:19:12;;;;;;;6.40;3.83;;;;;;;;;;5043950;28;20185;-72
2023/06/22 11:21:38;;;;;;;5.80;4.13;;;;;;;;;;5043991;28;20181;-72
2023/06/22 11:24:03;;;;;;;5.20;4.63;;;;;;;;;;5027281;28;20665;-72
2023/06/22 11:26:28;;;;;;;5.18;4.30;;;;;;;;;;5049559;28;20536;-72
2023/06/22 11:28:53;;;;;;;4.55;4.13;;;;;;;;;;5048813;28;20195;-72
2023/06/22 11:31:19;;;;;;;6.72;4.68;;;;;;;;;;5043738;28;20176;-72
2023/06/22 11:33:45;;;;;;;4.40;3.57;;;;;;;;;;5027203;28;20186;-71
2023/06/22 11:36:11;;;;;;;10.95;4.93;;;;;;;;;;5043987;28;20419;-72
2023/06/22 11:38:38;;;;;;;7.65;4.15;;;;;;;;;;5039352;28;20178;-72
2023/06/22 11:41:04;;;;;;;6.75;4.68;;;;;;;;;;5046643;28;20189;-72
2023/06/22 11:43:29;;;;;;;7.93;6.00;;;;;;;;;;5049041;28;20730;-73
2023/06/22 11:45:55;;;;;;;6.78;5.32;;;;;;;;;;5043036;28;21026;-72
2023/06/22 11:48:21;;;;;;;7.40;5.10;;;;;;;;;;5040658;28;20572;-72
2023/06/22 11:50:46;;;;;;;6.43;4.05;;;;;;;;;;5030791;28;20174;-71
2023/06/22 11:53:12;;;;;;;5.78;4.70;;;;;;;;;;5044914;28;20182;-73
2023/06/22 11:55:37;;;;;;;6.18;4.50;;;;;;;;;;5024915;28;20280;-71
2023/06/22 11:58:03;;;;;;;7.18;5.15;;;;;;;;;;5046623;28;20181;-72
2023/06/22 12:00:29;;;;;;;9.10;4.88;;;;;;;;;;5045225;28;20184;-72
2023/06/22 12:02:55;;;;;;;5.50;4.18;;;;;;;;;;5047822;28;20185;-72
2023/06/22 12:05:21;;;;;;;7.63;4.70;;;;;;;;;;5048364;28;20572;-72
2023/06/22 12:07:46;;;;;;;6.72;4.93;;;;;;;;;;5043363;28;20213;-72
2023/06/22 12:10:11;;;;;;;8.55;4.97;;;;;;;;;;5042611;28;20174;-71
2023/06/22 12:12:37;;;;;;;8.35;5.50;;;;;;;;;;5042243;28;20182;-72
2023/06/22 12:15:03;;;;;;;7.03;5.90;;;;;;;;;;5036458;28;20197;-72
2023/06/22 12:17:29;;;;;;;7.15;5.72;;;;;;;;;;5048485;28;20208;-72
2023/06/22 12:19:54;;;;;;;7.90;4.47;;;;;;;;;;5036608;28;20220;-72
2023/06/22 12:22:19;;;;;;;9.00;5.80;;;;;;;;;;5025377;28;20178;-72
2023/06/22 12:24:44;;;;;;;9.07;5.60;;;;;;;;;;5040555;22;20232;-73
2023/06/22 12:27:10;;;;;;;5.97;5.43;;;;;;;;;;5055666;28;20472;-74
2023/06/22 12:29:35;;;;;;;7.77;6.47;;;;;;;;;;5042982;28;20178;-73
2023/06/22 12:32:00;;;;;;;7.80;5.85;;;;;;;;;;5046723;28;20427;-74
2023/06/22 12:34:25;;;;;;;10.23;6.45;;;;;;;;;;5045686;28;20176;-74
2023/06/22 12:36:51;;;;;;;11.95;7.65;;;;;;;;;;5048227;28;20260;-73
2023/06/22 12:39:16;;;;;;;7.90;5.83;;;;;;;;;;5041907;28;20263;-74
2023/06/22 12:41:41;;;;;;;7.22;6.50;;;;;;;;;;5042925;28;20571;-74
2023/06/22 12:44:06;;;;;;;8.90;6.50;;;;;;;;;;5044480;28;20178;-73
2023/06/22 12:46:37;;;;;;;9.27;5.75;;;;;;;;;;5048111;28;20197;-74
2023/06/22 12:49:03;;;;;;;7.50;6.45;;;;;;;;;;5046800;28;20208;-74
2023/06/22 12:51:28;;;;;;;9.23;6.63;;;;;;;;;;5048661;28;20228;-73
2023/06/22 12:53:54;;;;;;;10.80;6.93;;;;;;;;;;5045231;28;20177;-73
2023/06/22 12:56:19;;;;;;;7.93;6.00;;;;;;;;;;5045987;28;20202;-73
2023/06/22 12:58:44;;;;;;;7.88;6.75;;;;;;;;;;5044777;28;20277;-73
2023/06/22 13:01:09;;;;;;;9.27;6.93;;;;;;;;;;5048777;28;20185;-74
2023/06/22 13:03:35;;;;;;;12.57;8.38;;;;;;;;;;5051346;28;20562;-73
2023/06/22 13:06:00;;;;;;;9.43;7.28;;;;;;;;;;5051135;28;20290;-73
2023/06/22 13:08:25;;;;;;;13.27;8.27;;;;;;;;;;5051667;28;20587;-73
2023/06/22 13:10:50;;;;;;;12.10;8.45;;;;;;;;;;5051798;28;20702;-73
2023/06/22 13:13:16;;;;;;;10.50;8.40;;;;;;;;;;5050827;28;20258;-73
2023/06/22 13:15:41;;;;;;;12.45;9.50;;;;;;;;;;5050799;28;20268;-74
2023/06/22 13:18:06;;;;;;;11.00;9.88;;;;;;;;;;5050034;28;20601;-74
2023/06/22 13:20:31;;;;;;;11.52;9.63;;;;;;;;;;5062211;28;20182;-74
2023/06/22 13:22:57;;;;;;;10.73;9.60;;;;;;;;;;5053835;28;20177;-75
2023/06/22 13:25:26;;;;;;;12.07;9.30;;;;;;;;;;5051580;28;20279;-75
2023/06/22 13:27:51;;;;;;;12.25;10.27;;;;;;;;;;5053731;28;20209;-74
2023/06/22 13:30:16;;;;;;;12.90;11.27;;;;;;;;;;5049256;28;20199;-74
2023/06/22 13:32:42;;;;;;;12.73;10.90;;;;;;;;;;5048363;28;20261;-74
2023/06/22 13:35:08;;;;;;;13.55;11.52;;;;;;;;;;5052243;28;20292;-74
2023/06/22 13:37:33;;;;;;;15.65;10.57;;;;;;;;;;5051265;28;20185;-74
2023/06/22 13:39:59;;;;;;;15.32;12.38;;;;;;;;;;5046961;28;20234;-74
2023/06/22 13:42:24;;;;;;;17.48;13.23;;;;;;;;;;5049086;28;20182;-75
2023/06/22 13:44:50;;;;;;;16.65;12.15;;;;;;;;;;5045711;28;20202;-75
2023/06/22 13:47:15;;;;;;;17.92;13.10;;;;;;;;;;5045905;28;20213;-75
2023/06/22 13:49:40;;;;;;;17.55;12.15;;;;;;;;;;5051113;28;20184;-75
2023/06/22 13:52:10;;;;;;;15.80;13.05;;;;;;;;;;5048180;28;20269;-75
2023/06/22 13:54:35;;;;;;;16.95;12.85;;;;;;;;;;5047478;28;20557;-75
2023/06/22 13:57:00;;;;;;;15.20;12.32;;;;;;;;;;5047567;28;20188;-75
2023/06/22 13:59:27;;;;;;;17.67;14.02;;;;;;;;;;5050396;28;20256;-75
2023/06/22 14:01:53;;;;;;;16.70;13.52;;;;;;;;;;5049439;28;20174;-75
2023/06/22 14:04:18;;;;;;;20.38;14.05;;;;;;;;;;5050658;28;20243;-75
2023/06/22 14:06:43;;;;;;;16.55;13.02;;;;;;;;;;5050995;28;20198;-75
2023/06/22 14:09:09;;;;;;;17.13;13.20;;;;;;;;;;5047699;28;20181;-75
2023/06/22 14:11:34;;;;;;;18.75;13.52;;;;;;;;;;5048643;28;20241;-75
2023/06/22 14:13:59;;;;;;;16.42;14.00;;;;;;;;;;5050825;28;20178;-74
2023/06/22 14:16:24;;;;;;;16.90;13.30;;;;;;;;;;5049572;28;20696;-74
2023/06/22 14:18:50;;;;;;;18.70;13.63;;;;;;;;;;5053550;28;20457;-73
2023/06/22 14:21:15;;;;;;;16.00;12.32;;;;;;;;;;5048332;28;20178;-74
2023/06/22 14:23:40;;;;;;;18.90;13.45;;;;;;;;;;5051333;28;20186;-74
2023/06/22 14:26:05;;;;;;;25.48;13.35;;;;;;;;;;5046929;28;20304;-74
2023/06/22 14:28:31;;;;;;;14.88;11.98;;;;;;;;;;5046044;28;20217;-74